createdAt,value
2019-05-15T00:00:40.517Z,78.89
2019-05-15T00:01:41.229Z,78.27
2019-05-15T00:02:40.509Z,80.54
2019-05-15T00:03:40.491Z,80.54
2019-05-15T00:04:40.475Z,80.44
2019-05-15T00:05:40.470Z,79.82
2019-05-15T00:06:40.453Z,80.47
2019-05-15T00:07:40.488Z,80.65
2019-05-15T00:08:40.428Z,80.68
2019-05-15T00:09:41.847Z,80.89
2019-05-15T00:10:40.414Z,80.89
2019-05-15T00:11:40.402Z,80.89
2019-05-15T00:12:40.429Z,80.99
2019-05-15T00:13:40.380Z,80.89
2019-05-15T00:14:40.411Z,81.30
2019-05-15T00:15:40.509Z,81.41
2019-05-15T00:16:40.349Z,80.99
2019-05-15T00:17:40.346Z,81.20
2019-05-15T00:18:40.370Z,80.99
2019-05-15T00:19:40.312Z,81.10
2019-05-15T00:20:40.299Z,80.79
2019-05-15T00:21:40.296Z,80.83
2019-05-15T00:22:40.322Z,81.76
2019-05-15T00:23:40.289Z,82.39
2019-05-15T00:24:40.258Z,82.18
2019-05-15T00:25:40.255Z,82.49
2019-05-15T00:26:40.238Z,81.87
2019-05-15T00:27:40.231Z,82.18
2019-05-15T00:28:40.240Z,81.97
2019-05-15T00:29:40.203Z,82.59
2019-05-15T00:30:40.193Z,82.39
2019-05-15T00:31:40.186Z,82.53
2019-05-15T00:32:40.171Z,83.04
2019-05-15T00:33:40.197Z,82.84
2019-05-15T00:34:40.158Z,83.15
2019-05-15T00:35:40.138Z,82.84
2019-05-15T00:36:40.130Z,83.98
2019-05-15T00:37:40.120Z,83.36
2019-05-15T00:38:40.128Z,82.98
2019-05-15T00:39:40.121Z,84.74
2019-05-15T00:40:40.084Z,84.43
2019-05-15T00:41:50.272Z,85.05
2019-05-15T00:42:41.067Z,83.70
2019-05-15T00:43:40.068Z,83.91
2019-05-15T00:44:40.050Z,84.78
2019-05-15T00:45:40.055Z,84.89
2019-05-15T00:46:40.045Z,85.16
2019-05-15T00:47:40.023Z,85.30
2019-05-15T00:48:40.128Z,86.03
2019-05-15T00:49:39.989Z,85.30
2019-05-15T00:50:39.979Z,84.37
2019-05-15T00:51:39.974Z,85.41
2019-05-15T00:52:39.959Z,85.41
2019-05-15T00:53:39.984Z,85.82
2019-05-15T00:54:39.963Z,86.03
2019-05-15T00:55:39.929Z,85.82
2019-05-15T00:56:39.939Z,85.82
2019-05-15T00:57:39.901Z,86.13
2019-05-15T00:58:40.338Z,86.03
2019-05-15T00:59:39.879Z,86.86
2019-05-15T01:00:39.880Z,86.86
2019-05-15T01:01:39.855Z,87.07
2019-05-15T01:02:39.857Z,86.86
2019-05-15T01:03:39.855Z,86.49
2019-05-15T01:04:39.861Z,86.27
2019-05-15T01:05:39.819Z,86.27
2019-05-15T01:06:39.805Z,86.49
2019-05-15T01:07:39.801Z,86.07
2019-05-15T01:08:39.801Z,87.21
2019-05-15T01:09:39.771Z,86.49
2019-05-15T01:10:39.774Z,86.80
2019-05-15T01:11:39.759Z,88.25
2019-05-15T01:12:39.742Z,87.63
2019-05-15T01:13:39.751Z,88.04
2019-05-15T01:14:39.724Z,88.15
2019-05-15T01:15:39.708Z,87.94
2019-05-15T01:16:39.704Z,87.46
2019-05-15T01:17:39.696Z,87.73
2019-05-15T01:18:39.696Z,87.88
2019-05-15T01:19:39.663Z,86.73
2019-05-15T01:20:39.654Z,87.46
2019-05-15T01:21:39.645Z,87.88
2019-05-15T01:22:39.745Z,87.98
2019-05-15T01:23:39.651Z,87.77
2019-05-15T01:24:39.616Z,88.09
2019-05-15T01:25:39.602Z,87.88
2019-05-15T01:26:39.596Z,88.12
2019-05-15T01:27:39.577Z,88.60
2019-05-15T01:28:39.586Z,88.64
2019-05-15T01:29:44.745Z,88.64
2019-05-15T01:30:40.549Z,88.60
2019-05-15T01:31:39.551Z,88.96
2019-05-15T01:32:39.856Z,87.92
2019-05-15T01:33:39.540Z,88.33
2019-05-15T01:34:39.511Z,87.81
2019-05-15T01:35:39.489Z,88.58
2019-05-15T01:36:39.494Z,89.10
2019-05-15T01:37:39.483Z,89.62
2019-05-15T01:38:39.460Z,88.68
2019-05-15T01:39:39.469Z,89.00
2019-05-15T01:40:39.448Z,89.41
2019-05-15T01:41:39.452Z,89.73
2019-05-15T01:42:39.482Z,90.14
2019-05-15T01:43:39.444Z,89.73
2019-05-15T01:44:39.406Z,89.94
2019-05-15T01:45:39.751Z,89.41
2019-05-15T01:46:39.539Z,89.31
2019-05-15T01:47:39.364Z,90.25
2019-05-15T01:48:39.350Z,90.04
2019-05-15T01:49:39.372Z,89.56
2019-05-15T01:50:39.406Z,90.29
2019-05-15T01:51:39.323Z,90.81
2019-05-15T01:52:39.391Z,90.50
2019-05-15T01:53:39.297Z,90.29
2019-05-15T01:54:39.315Z,90.08
2019-05-15T01:55:39.770Z,91.02
2019-05-15T01:56:39.313Z,90.70
2019-05-15T01:57:39.258Z,91.02
2019-05-15T01:58:39.256Z,91.85
2019-05-15T01:59:53.695Z,91.75
2019-05-15T02:00:40.225Z,91.85
2019-05-15T02:01:39.427Z,91.43
2019-05-15T02:02:39.390Z,92.41
2019-05-15T02:03:39.225Z,91.53
2019-05-15T02:04:39.456Z,91.37
2019-05-15T02:05:39.380Z,92.52
2019-05-15T02:06:39.293Z,91.58
2019-05-15T02:07:39.425Z,91.58
2019-05-15T02:08:39.589Z,91.96
2019-05-15T02:09:39.140Z,91.89
2019-05-15T02:10:39.547Z,92.00
2019-05-15T02:11:39.101Z,92.21
2019-05-15T02:12:39.220Z,91.68
2019-05-15T02:13:39.199Z,92.58
2019-05-15T02:14:39.329Z,92.72
2019-05-15T02:15:39.665Z,92.10
2019-05-15T02:16:39.461Z,92.41
2019-05-15T02:17:39.553Z,91.89
2019-05-15T02:18:39.392Z,91.58
2019-05-15T02:19:39.313Z,91.37
2019-05-15T02:20:39.298Z,92.46
2019-05-15T02:21:39.020Z,92.10
2019-05-15T02:22:42.560Z,93.14
2019-05-15T02:23:39.022Z,93.66
2019-05-15T02:24:39.266Z,93.98
2019-05-15T02:25:39.091Z,93.66
2019-05-15T02:26:39.034Z,93.87
2019-05-15T02:27:39.568Z,93.98
2019-05-15T02:28:38.986Z,93.98
2019-05-15T02:29:38.922Z,94.18
2019-05-15T02:30:40.313Z,94.92
2019-05-15T02:31:39.410Z,94.70
2019-05-15T02:32:39.679Z,93.87
2019-05-15T02:33:39.916Z,94.49
2019-05-15T02:34:39.525Z,95.12
2019-05-15T02:35:39.571Z,94.08
2019-05-15T02:36:39.977Z,94.29
2019-05-15T02:37:40.804Z,94.39
2019-05-15T02:38:41.080Z,94.92
2019-05-15T02:39:39.148Z,94.18
2019-05-15T02:40:40.508Z,94.60
2019-05-15T02:41:39.651Z,95.02
2019-05-15T02:42:39.890Z,94.39
2019-05-15T02:43:39.340Z,94.29
2019-05-15T02:44:40.028Z,95.02
2019-05-15T02:45:42.189Z,94.70
2019-05-15T02:46:39.309Z,94.29
2019-05-15T02:47:39.644Z,95.02
2019-05-15T02:48:41.014Z,94.54
2019-05-15T02:49:39.582Z,94.23
2019-05-15T02:50:39.413Z,94.96
2019-05-15T02:51:39.946Z,94.33
2019-05-15T02:52:40.733Z,94.75
2019-05-15T02:53:39.981Z,95.17
2019-05-15T02:54:40.062Z,95.12
2019-05-15T02:55:40.269Z,94.29
2019-05-15T02:56:39.428Z,95.37
2019-05-15T02:57:39.579Z,95.27
2019-05-15T02:58:39.804Z,94.64
2019-05-15T02:59:39.635Z,94.85
2019-05-15T03:00:47.263Z,94.85
2019-05-15T03:01:40.690Z,96.11
2019-05-15T03:02:41.136Z,96.00
2019-05-15T03:03:39.217Z,95.79
2019-05-15T03:04:40.087Z,95.27
2019-05-15T03:05:40.815Z,95.17
2019-05-15T03:06:39.147Z,95.89
2019-05-15T03:07:40.245Z,96.15
2019-05-15T03:08:39.843Z,96.15
2019-05-15T03:09:39.867Z,97.09
2019-05-15T03:10:40.732Z,97.09
2019-05-15T03:11:40.888Z,95.94
2019-05-15T03:12:40.799Z,96.04
2019-05-15T03:13:39.199Z,96.46
2019-05-15T03:14:39.903Z,96.04
2019-05-15T03:15:40.195Z,97.30
2019-05-15T03:16:39.381Z,96.77
2019-05-15T03:17:40.199Z,96.88
2019-05-15T03:18:39.809Z,96.50
2019-05-15T03:19:39.285Z,95.94
2019-05-15T03:20:39.001Z,96.25
2019-05-15T03:21:38.979Z,96.46
2019-05-15T03:22:40.141Z,96.88
2019-05-15T03:23:40.399Z,96.67
2019-05-15T03:24:39.666Z,96.15
2019-05-15T03:25:40.373Z,96.71
2019-05-15T03:26:39.441Z,98.13
2019-05-15T03:27:39.598Z,97.24
2019-05-15T03:28:39.348Z,96.77
2019-05-15T03:29:40.441Z,97.44
2019-05-15T03:31:06.686Z,96.98
2019-05-15T03:31:53.395Z,96.88
2019-05-15T03:32:50.521Z,96.98
2019-05-15T03:33:46.243Z,96.77
2019-05-15T03:34:46.711Z,96.88
2019-05-15T03:35:43.249Z,97.30
2019-05-15T03:36:44.305Z,98.02
2019-05-15T03:37:39.986Z,97.88
2019-05-15T03:38:39.335Z,98.02
2019-05-15T03:39:39.250Z,97.71
2019-05-15T03:40:39.763Z,97.81
2019-05-15T03:41:39.253Z,97.67
2019-05-15T03:42:39.479Z,97.61
2019-05-15T03:43:39.318Z,97.88
2019-05-15T03:44:39.357Z,97.56
2019-05-15T03:45:40.377Z,97.46
2019-05-15T03:46:39.889Z,97.98
2019-05-15T03:47:40.168Z,98.29
2019-05-15T03:48:40.155Z,97.46
2019-05-15T03:49:39.688Z,97.14
2019-05-15T03:50:40.311Z,98.29
2019-05-15T03:51:42.530Z,98.92
2019-05-15T03:52:39.700Z,97.88
2019-05-15T03:53:40.154Z,97.98
2019-05-15T03:54:39.354Z,97.77
2019-05-15T03:55:40.490Z,98.14
2019-05-15T03:56:39.341Z,98.04
2019-05-15T03:57:39.937Z,97.94
2019-05-15T03:58:40.000Z,96.89
2019-05-15T03:59:39.958Z,96.69
2019-05-15T04:00:39.436Z,97.06
2019-05-15T04:01:43.292Z,97.16
2019-05-15T04:02:39.777Z,96.85
2019-05-15T04:03:38.963Z,96.64
2019-05-15T04:04:38.820Z,96.75
2019-05-15T04:05:38.877Z,96.95
2019-05-15T04:06:39.138Z,96.64
2019-05-15T04:07:39.846Z,96.01
2019-05-15T04:08:39.175Z,95.66
2019-05-15T04:09:38.702Z,95.60
2019-05-15T04:10:39.875Z,95.97
2019-05-15T04:11:38.788Z,95.97
2019-05-15T04:12:40.336Z,95.45
2019-05-15T04:13:39.567Z,95.62
2019-05-15T04:14:39.429Z,96.03
2019-05-15T04:15:39.609Z,94.89
2019-05-15T04:16:39.074Z,95.30
2019-05-15T04:17:40.185Z,95.51
2019-05-15T04:18:39.637Z,95.20
2019-05-15T04:19:39.140Z,95.20
2019-05-15T04:20:40.624Z,95.05
2019-05-15T04:21:41.499Z,94.95
2019-05-15T04:22:40.023Z,94.38
2019-05-15T04:23:39.083Z,93.97
2019-05-15T04:24:39.577Z,93.97
2019-05-15T04:25:39.159Z,94.07
2019-05-15T04:26:39.413Z,93.62
2019-05-15T04:27:39.115Z,93.10
2019-05-15T04:28:41.281Z,92.68
2019-05-15T04:29:39.713Z,93.10
2019-05-15T04:30:39.283Z,92.32
2019-05-15T04:31:51.864Z,92.43
2019-05-15T04:32:39.763Z,92.22
2019-05-15T04:33:39.968Z,92.22
2019-05-15T04:34:39.660Z,91.35
2019-05-15T04:35:40.200Z,91.45
2019-05-15T04:36:39.540Z,91.35
2019-05-15T04:37:40.811Z,91.00
2019-05-15T04:38:39.236Z,90.37
2019-05-15T04:39:40.092Z,90.27
2019-05-15T04:40:39.639Z,90.12
2019-05-15T04:41:39.262Z,89.81
2019-05-15T04:42:39.839Z,90.12
2019-05-15T04:43:41.467Z,89.87
2019-05-15T04:44:39.529Z,90.44
2019-05-15T04:45:39.239Z,89.36
2019-05-15T04:46:39.191Z,89.15
2019-05-15T04:47:39.573Z,88.79
2019-05-15T04:48:39.821Z,88.69
2019-05-15T04:49:39.334Z,87.87
2019-05-15T04:50:39.863Z,88.39
2019-05-15T04:51:39.133Z,87.45
2019-05-15T04:52:39.361Z,87.97
2019-05-15T04:53:39.393Z,87.51
2019-05-15T04:54:40.180Z,87.51
2019-05-15T04:55:40.380Z,86.58
2019-05-15T04:56:40.071Z,86.17
2019-05-15T04:57:40.244Z,86.07
2019-05-15T04:58:39.459Z,86.33
2019-05-15T04:59:39.046Z,86.75
2019-05-15T05:00:39.827Z,86.02
2019-05-15T05:01:40.150Z,86.44
2019-05-15T05:02:39.961Z,86.29
2019-05-15T05:03:39.363Z,86.40
2019-05-15T05:04:38.758Z,85.82
2019-05-15T05:05:38.731Z,86.29
2019-05-15T05:06:38.724Z,85.78
2019-05-15T05:07:38.954Z,85.78
2019-05-15T05:08:39.695Z,86.09
2019-05-15T05:09:38.981Z,85.53
2019-05-15T05:10:39.560Z,84.70
2019-05-15T05:11:38.363Z,84.70
2019-05-15T05:12:41.311Z,84.50
2019-05-15T05:13:39.144Z,84.66
2019-05-15T05:14:39.166Z,84.19
2019-05-15T05:15:38.905Z,83.84
2019-05-15T05:16:39.329Z,84.36
2019-05-15T05:17:39.172Z,84.15
2019-05-15T05:18:41.460Z,83.90
2019-05-15T05:19:40.060Z,83.39
2019-05-15T05:20:38.269Z,83.28
2019-05-15T05:21:38.579Z,83.14
2019-05-15T05:22:39.249Z,83.14
2019-05-15T05:23:37.760Z,82.52
2019-05-15T05:24:38.501Z,82.42
2019-05-15T05:25:38.832Z,82.21
2019-05-15T05:26:38.257Z,81.90
2019-05-15T05:27:38.265Z,81.76
2019-05-15T05:28:37.939Z,81.04
2019-05-15T05:29:38.630Z,81.93
2019-05-15T05:30:38.596Z,81.10
2019-05-15T05:31:39.058Z,81.00
2019-05-15T05:32:38.976Z,80.48
2019-05-15T05:33:38.186Z,80.96
2019-05-15T05:34:39.101Z,80.96
2019-05-15T05:35:38.763Z,79.93
2019-05-15T05:36:38.601Z,80.34
2019-05-15T05:37:38.964Z,80.24
2019-05-15T05:38:38.740Z,78.69
2019-05-15T05:39:39.276Z,78.55
2019-05-15T05:40:38.495Z,78.55
2019-05-15T05:41:39.139Z,78.21
2019-05-15T05:42:38.839Z,78.11
2019-05-15T05:43:38.320Z,77.80
2019-05-15T05:44:38.662Z,77.11
2019-05-15T05:45:38.297Z,77.04
2019-05-15T05:46:36.805Z,76.18
2019-05-15T05:47:38.194Z,76.59
2019-05-15T05:48:38.379Z,76.49
2019-05-15T05:49:38.188Z,76.14
2019-05-15T05:50:38.515Z,75.94
2019-05-15T05:51:38.706Z,75.32
2019-05-15T05:52:38.865Z,75.80
2019-05-15T05:53:38.282Z,75.04
2019-05-15T05:54:38.290Z,74.84
2019-05-15T05:55:38.450Z,73.61
2019-05-15T05:56:37.822Z,74.08
2019-05-15T05:57:38.299Z,73.47
2019-05-15T05:58:38.954Z,72.85
2019-05-15T05:59:38.703Z,73.44
2019-05-15T06:00:39.185Z,73.44
2019-05-15T06:01:43.578Z,73.13
2019-05-15T06:02:47.374Z,72.78
2019-05-15T06:03:38.568Z,73.50
2019-05-15T06:04:38.428Z,73.30
2019-05-15T06:05:38.743Z,72.48
2019-05-15T06:06:38.435Z,72.24
2019-05-15T06:07:38.802Z,72.44
2019-05-15T06:08:38.811Z,72.44
2019-05-15T06:09:38.022Z,72.31
2019-05-15T06:10:38.655Z,70.77
2019-05-15T06:11:38.084Z,70.15
2019-05-15T06:12:38.909Z,70.26
2019-05-15T06:13:38.235Z,70.26
2019-05-15T06:14:38.044Z,70.22
2019-05-15T06:15:37.970Z,70.53
2019-05-15T06:16:38.548Z,69.81
2019-05-15T06:17:38.778Z,69.92
2019-05-15T06:18:38.779Z,70.40
2019-05-15T06:19:38.498Z,68.73
2019-05-15T06:20:36.430Z,69.13
2019-05-15T06:21:39.184Z,69.44
2019-05-15T06:22:38.827Z,69.51
2019-05-15T06:23:36.673Z,68.28
2019-05-15T06:24:37.912Z,68.76
2019-05-15T06:25:38.915Z,67.54
2019-05-15T06:26:38.466Z,67.50
2019-05-15T06:27:38.701Z,67.19
2019-05-15T06:28:39.135Z,65.66
2019-05-15T06:29:37.841Z,65.43
2019-05-15T06:30:38.621Z,65.94
2019-05-15T06:31:38.661Z,65.40
2019-05-15T06:32:39.463Z,65.26
2019-05-15T06:33:38.426Z,64.55
2019-05-15T06:34:37.982Z,65.74
2019-05-15T06:35:36.267Z,63.06
2019-05-15T06:36:36.259Z,63.37
2019-05-15T06:37:36.252Z,63.44
2019-05-15T06:38:36.272Z,62.18
2019-05-15T06:39:36.263Z,61.34
2019-05-15T06:40:36.227Z,61.00
2019-05-15T06:41:38.834Z,59.73
2019-05-15T06:42:38.938Z,59.16
2019-05-15T06:43:38.641Z,57.79
2019-05-15T06:44:36.184Z,57.73
2019-05-15T06:45:37.988Z,56.90
2019-05-15T06:46:39.051Z,54.51
2019-05-15T06:47:36.141Z,53.67
2019-05-15T06:48:37.985Z,52.03
2019-05-15T06:49:37.786Z,50.87
2019-05-15T06:50:38.154Z,50.54
2019-05-15T06:51:37.900Z,50.52
2019-05-15T06:52:38.063Z,50.16
2019-05-15T06:53:38.242Z,47.92
2019-05-15T06:54:37.818Z,47.88
2019-05-15T06:55:38.609Z,46.67
2019-05-15T06:56:38.644Z,46.75
2019-05-15T06:57:36.022Z,46.22
2019-05-15T06:58:38.472Z,46.40
2019-05-15T06:59:36.018Z,45.07
2019-05-15T07:00:35.990Z,44.23
2019-05-15T07:01:38.376Z,43.62
2019-05-15T07:02:38.267Z,42.90
2019-05-15T07:03:35.969Z,42.68
2019-05-15T07:04:38.186Z,42.25
2019-05-15T07:05:38.366Z,42.44
2019-05-15T07:06:38.012Z,41.11
2019-05-15T07:07:38.477Z,40.91
2019-05-15T07:08:38.208Z,40.89
2019-05-15T07:09:37.954Z,39.67
2019-05-15T07:10:37.803Z,39.07
2019-05-15T07:11:35.876Z,39.73
2019-05-15T07:12:35.858Z,39.91
2019-05-15T07:13:38.151Z,39.72
2019-05-15T07:14:37.844Z,38.49
2019-05-15T07:15:38.209Z,37.38
2019-05-15T07:16:35.817Z,37.38
2019-05-15T07:17:35.806Z,37.36
2019-05-15T07:18:35.795Z,37.76
2019-05-15T07:19:35.820Z,36.88
2019-05-15T07:20:35.777Z,37.49
2019-05-15T07:21:38.537Z,37.11
2019-05-15T07:22:38.815Z,37.21
2019-05-15T07:23:38.408Z,35.63
2019-05-15T07:24:35.751Z,35.64
2019-05-15T07:25:35.721Z,36.35
2019-05-15T07:26:35.716Z,34.16
2019-05-15T07:27:35.717Z,33.98
2019-05-15T07:28:37.842Z,34.49
2019-05-15T07:29:35.705Z,33.79
2019-05-15T07:30:40.836Z,34.41
2019-05-15T07:31:38.369Z,35.01
2019-05-15T07:32:35.645Z,34.63
2019-05-15T07:33:40.420Z,34.73
2019-05-15T07:34:37.891Z,35.43
2019-05-15T07:35:38.251Z,34.12
2019-05-15T07:36:35.603Z,35.03
2019-05-15T07:37:35.595Z,34.04
2019-05-15T07:38:35.582Z,34.36
2019-05-15T07:39:38.061Z,34.86
2019-05-15T07:40:38.327Z,34.98
2019-05-15T07:41:35.549Z,35.70
2019-05-15T07:42:38.328Z,35.90
2019-05-15T07:43:35.534Z,35.83
2019-05-15T07:44:35.529Z,35.73
2019-05-15T07:45:35.514Z,36.96
2019-05-15T07:46:35.493Z,37.06
2019-05-15T07:47:35.490Z,37.18
2019-05-15T07:48:35.474Z,37.46
2019-05-15T07:49:35.475Z,37.46
2019-05-15T07:50:35.473Z,37.56
2019-05-15T07:51:37.995Z,37.18
2019-05-15T07:52:35.435Z,36.69
2019-05-15T07:53:38.205Z,36.51
2019-05-15T07:54:35.439Z,36.91
2019-05-15T07:55:35.408Z,37.13
2019-05-15T07:56:35.395Z,37.55
2019-05-15T07:57:35.375Z,37.65
2019-05-15T07:58:35.375Z,37.85
2019-05-15T07:59:35.373Z,38.76
2019-05-15T08:00:35.359Z,37.57
2019-05-15T08:01:35.341Z,38.09
2019-05-15T08:02:37.807Z,38.82
2019-05-15T08:03:35.318Z,39.42
2019-05-15T08:04:35.328Z,39.24
2019-05-15T08:05:35.293Z,39.04
2019-05-15T08:06:35.285Z,39.44
2019-05-15T08:07:35.271Z,41.16
2019-05-15T08:08:35.260Z,39.04
2019-05-15T08:09:35.271Z,39.34
2019-05-15T08:10:35.246Z,39.06
2019-05-15T08:11:35.224Z,39.36
2019-05-15T08:12:35.224Z,39.15
2019-05-15T08:13:35.203Z,39.34
2019-05-15T08:14:35.208Z,39.44
2019-05-15T08:15:35.197Z,40.15
2019-05-15T08:16:35.175Z,39.75
2019-05-15T08:17:35.171Z,39.14
2019-05-15T08:18:35.149Z,39.04
2019-05-15T08:19:35.148Z,40.13
2019-05-15T08:20:35.128Z,39.22
2019-05-15T08:21:35.125Z,39.12
2019-05-15T08:22:35.106Z,40.21
2019-05-15T08:23:35.096Z,39.20
2019-05-15T08:24:35.094Z,40.72
2019-05-15T08:25:35.531Z,39.40
2019-05-15T08:26:35.064Z,38.49
2019-05-15T08:27:35.049Z,39.00
2019-05-15T08:28:35.052Z,37.87
2019-05-15T08:29:35.040Z,37.87
2019-05-15T08:30:35.019Z,37.16
2019-05-15T08:31:35.010Z,37.55
2019-05-15T08:32:35.010Z,37.95
2019-05-15T08:33:34.988Z,38.44
2019-05-15T08:34:34.988Z,38.52
2019-05-15T08:35:34.966Z,37.51
2019-05-15T08:36:34.968Z,37.49
2019-05-15T08:37:34.940Z,36.99
2019-05-15T08:38:34.928Z,35.66
2019-05-15T08:39:34.936Z,35.66
2019-05-15T08:40:34.906Z,36.67
2019-05-15T08:41:34.897Z,35.57
2019-05-15T08:42:34.898Z,36.07
2019-05-15T08:43:34.883Z,35.35
2019-05-15T08:44:34.882Z,35.55
2019-05-15T08:45:34.866Z,34.24
2019-05-15T08:46:34.842Z,34.72
2019-05-15T08:47:34.838Z,34.83
2019-05-15T08:48:34.837Z,36.04
2019-05-15T08:49:34.829Z,34.83
2019-05-15T08:50:34.799Z,34.92
2019-05-15T08:51:34.806Z,34.83
2019-05-15T08:52:34.778Z,34.71
2019-05-15T08:53:34.765Z,34.89
2019-05-15T08:54:34.785Z,34.19
2019-05-15T08:55:34.750Z,34.39
2019-05-15T08:56:34.736Z,33.99
2019-05-15T08:57:34.731Z,35.10
2019-05-15T08:58:34.717Z,33.91
2019-05-15T08:59:34.712Z,33.91
2019-05-15T09:00:34.785Z,34.51
2019-05-15T09:01:34.681Z,34.41
2019-05-15T09:02:34.673Z,34.59
2019-05-15T09:03:34.674Z,35.10
2019-05-15T09:04:35.254Z,35.21
2019-05-15T09:05:34.653Z,35.70
2019-05-15T09:06:34.630Z,35.50
2019-05-15T09:07:34.617Z,35.78
2019-05-15T09:08:34.611Z,35.68
2019-05-15T09:09:34.603Z,35.28
2019-05-15T09:10:34.603Z,35.90
2019-05-15T09:11:34.586Z,35.60
2019-05-15T09:12:34.573Z,34.81
2019-05-15T09:13:34.562Z,34.22
2019-05-15T09:14:34.553Z,35.13
2019-05-15T09:15:34.558Z,35.45
2019-05-15T09:16:34.527Z,36.15
2019-05-15T09:17:34.515Z,35.35
2019-05-15T09:18:34.500Z,36.25
2019-05-15T09:19:34.493Z,35.65
2019-05-15T09:20:34.498Z,35.46
2019-05-15T09:21:34.474Z,35.75
2019-05-15T09:22:34.458Z,35.65
2019-05-15T09:23:34.461Z,36.05
2019-05-15T09:24:34.439Z,36.46
2019-05-15T09:25:34.459Z,36.86
2019-05-15T09:26:35.534Z,37.36
2019-05-15T09:27:34.410Z,37.06
2019-05-15T09:28:34.399Z,38.05
2019-05-15T09:29:34.384Z,36.94
2019-05-15T09:30:34.410Z,35.03
2019-05-15T09:31:34.361Z,36.84
2019-05-15T09:32:34.356Z,37.23
2019-05-15T09:33:34.337Z,36.82
2019-05-15T09:34:48.079Z,35.61
2019-05-15T09:35:35.338Z,37.10
2019-05-15T09:36:34.309Z,35.51
2019-05-15T09:37:34.303Z,36.92
2019-05-15T09:38:34.296Z,35.71
2019-05-15T09:39:34.272Z,36.70
2019-05-15T09:40:43.246Z,36.70
2019-05-15T09:41:35.256Z,35.39
2019-05-15T09:42:34.242Z,36.20
2019-05-15T09:43:34.233Z,37.59
2019-05-15T09:44:34.218Z,36.38
2019-05-15T09:45:34.224Z,36.58
2019-05-15T09:46:34.200Z,34.98
2019-05-15T09:47:34.187Z,35.50
2019-05-15T09:48:34.180Z,35.51
2019-05-15T09:49:34.164Z,36.52
2019-05-15T09:50:34.169Z,37.02
2019-05-15T09:51:34.153Z,36.62
2019-05-15T09:52:34.135Z,37.01
2019-05-15T09:53:34.138Z,37.79
2019-05-15T09:54:34.116Z,36.79
2019-05-15T09:55:34.122Z,36.89
2019-05-15T09:56:34.090Z,37.27
2019-05-15T09:57:34.079Z,35.46
2019-05-15T09:58:34.072Z,35.25
2019-05-15T09:59:34.068Z,35.95
2019-05-15T10:00:34.066Z,37.84
2019-05-15T10:01:34.039Z,36.02
2019-05-15T10:02:34.025Z,36.11
2019-05-15T10:03:34.012Z,36.32
2019-05-15T10:04:34.006Z,35.69
2019-05-15T10:05:34.010Z,35.50
2019-05-15T10:06:33.991Z,34.99
2019-05-15T10:07:33.977Z,35.39
2019-05-15T10:08:33.973Z,34.78
2019-05-15T10:09:33.955Z,34.88
2019-05-15T10:10:33.958Z,34.99
2019-05-15T10:11:33.926Z,34.88
2019-05-15T10:12:35.324Z,34.88
2019-05-15T10:13:33.908Z,36.58
2019-05-15T10:14:33.912Z,35.38
2019-05-15T10:15:33.908Z,35.26
2019-05-15T10:16:33.878Z,35.35
2019-05-15T10:17:33.862Z,35.55
2019-05-15T10:18:33.914Z,34.63
2019-05-15T10:19:33.846Z,34.03
2019-05-15T10:20:33.852Z,35.23
2019-05-15T10:21:33.818Z,34.23
2019-05-15T10:22:33.811Z,35.43
2019-05-15T10:23:33.808Z,35.81
2019-05-15T10:24:33.792Z,34.83
2019-05-15T10:25:33.806Z,34.63
2019-05-15T10:26:33.782Z,35.23
2019-05-15T10:27:33.752Z,34.81
2019-05-15T10:28:33.784Z,34.05
2019-05-15T10:29:33.741Z,35.35
2019-05-15T10:30:33.746Z,35.76
2019-05-15T10:31:33.720Z,36.58
2019-05-15T10:32:33.700Z,36.58
2019-05-15T10:33:33.693Z,36.48
2019-05-15T10:34:33.689Z,36.36
2019-05-15T10:35:33.681Z,36.87
2019-05-15T10:36:33.663Z,35.94
2019-05-15T10:37:33.648Z,37.53
2019-05-15T10:38:33.647Z,35.33
2019-05-15T10:39:33.630Z,35.44
2019-05-15T10:40:33.647Z,34.74
2019-05-15T10:41:33.604Z,34.64
2019-05-15T10:42:33.591Z,35.85
2019-05-15T10:43:33.590Z,35.55
2019-05-15T10:44:33.572Z,34.94
2019-05-15T10:45:33.563Z,35.46
2019-05-15T10:46:33.567Z,36.16
2019-05-15T10:47:33.537Z,35.28
2019-05-15T10:48:33.616Z,35.26
2019-05-15T10:49:33.514Z,35.48
2019-05-15T10:50:33.507Z,35.60
2019-05-15T10:51:33.510Z,36.00
2019-05-15T10:52:33.489Z,37.40
2019-05-15T10:53:33.475Z,36.60
2019-05-15T10:54:33.465Z,36.80
2019-05-15T10:55:33.470Z,35.80
2019-05-15T10:56:33.452Z,36.50
2019-05-15T10:57:33.438Z,35.69
2019-05-15T10:58:33.456Z,34.99
2019-05-15T10:59:33.410Z,34.29
2019-05-15T11:00:33.402Z,34.58
2019-05-15T11:01:33.398Z,33.79
2019-05-15T11:02:33.372Z,35.68
2019-05-15T11:03:35.099Z,34.08
2019-05-15T11:04:33.354Z,34.66
2019-05-15T11:05:44.687Z,34.66
2019-05-15T11:06:34.364Z,34.28
2019-05-15T11:07:33.325Z,34.58
2019-05-15T11:08:33.315Z,34.28
2019-05-15T11:09:33.306Z,34.78
2019-05-15T11:10:33.292Z,35.18
2019-05-15T11:11:33.306Z,34.08
2019-05-15T11:12:33.270Z,34.58
2019-05-15T11:13:33.256Z,34.67
2019-05-15T11:14:33.248Z,35.48
2019-05-15T11:15:33.234Z,35.76
2019-05-15T11:16:33.252Z,34.86
2019-05-15T11:17:33.216Z,34.36
2019-05-15T11:18:33.211Z,34.96
2019-05-15T11:19:36.075Z,35.56
2019-05-15T11:20:33.180Z,34.88
2019-05-15T11:21:33.188Z,34.99
2019-05-15T11:22:33.160Z,35.30
2019-05-15T11:23:33.145Z,35.89
2019-05-15T11:24:33.133Z,35.69
2019-05-15T11:25:33.129Z,35.89
2019-05-15T11:26:33.682Z,36.00
2019-05-15T11:27:33.137Z,35.51
2019-05-15T11:28:33.096Z,36.40
2019-05-15T11:29:33.086Z,35.82
2019-05-15T11:30:33.075Z,35.51
2019-05-15T11:31:33.074Z,35.51
2019-05-15T11:32:33.058Z,37.12
2019-05-15T11:33:33.077Z,36.41
2019-05-15T11:34:33.030Z,36.61
2019-05-15T11:35:33.017Z,37.52
2019-05-15T11:36:33.026Z,35.71
2019-05-15T11:37:33.006Z,37.42
2019-05-15T11:38:32.991Z,36.33
2019-05-15T11:39:32.978Z,36.54
2019-05-15T11:40:32.972Z,36.63
2019-05-15T11:41:33.001Z,36.13
2019-05-15T11:42:32.944Z,36.45
2019-05-15T11:43:32.939Z,35.66
2019-05-15T11:44:32.931Z,36.45
2019-05-15T11:45:32.919Z,36.95
2019-05-15T11:46:32.955Z,35.55
2019-05-15T11:47:32.913Z,35.85
2019-05-15T11:48:32.877Z,36.93
2019-05-15T11:49:32.870Z,37.12
2019-05-15T11:50:32.851Z,36.52
2019-05-15T11:51:32.864Z,35.61
2019-05-15T11:52:36.374Z,35.60
2019-05-15T11:53:33.831Z,34.91
2019-05-15T11:54:32.811Z,35.21
2019-05-15T11:55:32.813Z,36.00
2019-05-15T11:56:32.849Z,35.39
2019-05-15T11:57:42.421Z,35.80
2019-05-15T11:58:33.764Z,36.11
2019-05-15T11:59:32.759Z,36.80
2019-05-15T12:00:32.749Z,35.69
2019-05-15T12:01:32.745Z,35.50
2019-05-15T12:02:32.801Z,34.89
2019-05-15T12:03:32.709Z,35.60
2019-05-15T12:04:34.268Z,35.10
2019-05-15T12:05:32.691Z,36.38
2019-05-15T12:06:32.880Z,34.88
2019-05-15T12:07:32.678Z,35.36
2019-05-15T12:08:32.656Z,34.56
2019-05-15T12:09:32.645Z,34.06
2019-05-15T12:10:32.637Z,34.16
2019-05-15T12:11:36.960Z,34.55
2019-05-15T12:12:33.623Z,34.76
2019-05-15T12:13:32.602Z,34.55
2019-05-15T12:14:32.595Z,33.86
2019-05-15T12:15:32.583Z,33.56
2019-05-15T12:16:35.978Z,34.66
2019-05-15T12:17:34.196Z,34.46
2019-05-15T12:18:32.553Z,34.36
2019-05-15T12:19:32.539Z,34.48
2019-05-15T12:20:32.538Z,34.88
2019-05-15T12:21:32.531Z,35.36
2019-05-15T12:22:32.536Z,33.87
2019-05-15T12:23:32.503Z,34.99
2019-05-15T12:24:36.519Z,35.80
2019-05-15T12:25:33.486Z,36.80
2019-05-15T12:26:32.592Z,35.89
2019-05-15T12:27:32.452Z,37.70
2019-05-15T12:28:32.445Z,36.70
2019-05-15T12:29:32.431Z,35.08
2019-05-15T12:30:32.428Z,35.88
2019-05-15T12:31:32.413Z,34.67
2019-05-15T12:32:36.580Z,34.71
2019-05-15T12:33:33.392Z,35.41
2019-05-15T12:34:32.376Z,35.73
2019-05-15T12:35:32.367Z,35.33
2019-05-15T12:36:50.641Z,37.13
2019-05-15T12:37:33.357Z,35.73
2019-05-15T12:38:32.459Z,37.42
2019-05-15T12:39:32.331Z,36.11
2019-05-15T12:59:40.399Z,43.58
2019-05-15T13:00:33.095Z,41.91
2019-05-15T13:01:32.081Z,48.85
2019-05-15T13:02:32.076Z,45.63
2019-05-15T13:03:32.056Z,45.91
2019-05-15T13:04:32.045Z,44.51
2019-05-15T13:05:32.631Z,42.90
2019-05-15T13:06:45.949Z,40.99
2019-05-15T13:07:33.054Z,42.10
2019-05-15T13:08:32.001Z,41.71
2019-05-15T13:09:32.025Z,41.21
2019-05-15T13:10:31.977Z,41.25
2019-05-15T13:11:31.969Z,42.58